createdAt,value
2023-04-02T00:00:06.005Z,9.46
2023-04-02T00:03:05.878Z,9.56
2023-04-02T00:05:50.160Z,9.76
2023-04-02T00:08:22.242Z,9.67
2023-04-02T00:10:51.354Z,9.59
2023-04-02T00:13:16.704Z,9.62
2023-04-02T00:15:44.712Z,9.66
2023-04-02T00:18:09.318Z,9.69
2023-04-02T00:20:42.086Z,9.75
2023-04-02T00:23:06.405Z,9.77
2023-04-02T00:25:34.314Z,9.80
2023-04-02T00:27:57.530Z,9.77
2023-04-02T00:30:21.464Z,9.72
2023-04-02T00:32:44.283Z,9.70
2023-04-02T00:35:21.073Z,9.59
2023-04-02T00:37:44.756Z,9.73
2023-04-02T00:40:10.651Z,9.73
2023-04-02T00:42:35.940Z,9.79
2023-04-02T00:44:59.655Z,9.82
2023-04-02T00:47:26.608Z,9.80
2023-04-02T00:49:56.996Z,9.63
2023-04-02T00:52:23.759Z,9.67
2023-04-02T00:54:56.873Z,9.66
2023-04-02T00:57:26.631Z,9.62
2023-04-02T01:00:20.147Z,9.60
2023-04-02T01:02:42.943Z,9.56
2023-04-02T01:05:23.341Z,9.52
2023-04-02T01:08:15.795Z,9.55
2023-04-02T01:11:04.353Z,9.59
2023-04-02T01:13:50.834Z,9.55
2023-04-02T01:16:13.484Z,9.59
2023-04-02T01:19:02.444Z,9.62
2023-04-02T01:21:46.095Z,9.63
2023-04-02T01:24:14.085Z,9.49
2023-04-02T01:26:50.038Z,9.42
2023-04-02T01:29:24.704Z,9.43
2023-04-02T01:31:49.779Z,9.36
2023-04-02T01:34:16.085Z,9.43
2023-04-02T01:37:45.083Z,9.57
2023-04-02T01:40:17.385Z,9.69
2023-04-02T01:42:53.414Z,9.59
2023-04-02T01:45:19.677Z,9.53
2023-04-02T01:47:44.306Z,9.55
2023-04-02T01:50:37.061Z,9.52
2023-04-02T01:53:10.039Z,9.49
2023-04-02T01:55:40.461Z,9.46
2023-04-02T01:58:04.770Z,9.52
2023-04-02T02:00:30.429Z,9.45
2023-04-02T02:02:53.952Z,9.36
2023-04-02T02:05:20.970Z,9.42
2023-04-02T02:07:45.558Z,9.32
2023-04-02T02:10:16.433Z,9.38
2023-04-02T02:12:39.067Z,9.43
2023-04-02T02:15:02.480Z,9.39
2023-04-02T02:17:31.128Z,9.22
2023-04-02T02:19:59.056Z,9.18
2023-04-02T02:22:29.620Z,9.11
2023-04-02T02:24:53.315Z,8.97
2023-04-02T02:27:28.188Z,8.92
2023-04-02T02:30:18.357Z,8.91
2023-04-02T02:32:52.413Z,8.87
2023-04-02T02:35:27.144Z,8.97
2023-04-02T02:38:07.397Z,9.01
2023-04-02T02:40:39.113Z,9.03
2023-04-02T02:43:04.451Z,9.07
2023-04-02T02:45:33.150Z,9.10
2023-04-02T02:47:57.334Z,9.21
2023-04-02T02:50:32.766Z,9.22
2023-04-02T02:53:04.943Z,9.24
2023-04-02T02:55:37.050Z,9.27
2023-04-02T02:58:34.426Z,9.24
2023-04-02T03:01:05.459Z,9.22
2023-04-02T03:03:34.500Z,9.17
2023-04-02T03:06:06.682Z,9.14
2023-04-02T03:08:36.854Z,9.17
2023-04-02T03:11:08.056Z,9.07
2023-04-02T03:13:33.078Z,8.88
2023-04-02T03:16:20.762Z,8.85
2023-04-02T03:19:00.432Z,8.83
2023-04-02T03:21:42.699Z,8.85
2023-04-02T03:24:20.523Z,8.74
2023-04-02T03:26:52.433Z,8.74
2023-04-02T03:29:28.051Z,8.71
2023-04-02T03:31:57.997Z,8.69
2023-04-02T03:34:29.836Z,8.64
2023-04-02T03:37:26.062Z,8.71
2023-04-02T03:39:58.188Z,8.66
2023-04-02T03:42:36.471Z,8.64
2023-04-02T03:45:05.685Z,8.59
2023-04-02T03:47:37.978Z,8.59
2023-04-02T03:50:06.458Z,8.62
2023-04-02T03:52:31.054Z,8.53
2023-04-02T03:54:58.788Z,8.53
2023-04-02T03:57:46.650Z,8.43
2023-04-02T04:00:31.042Z,8.36
2023-04-02T04:02:59.249Z,8.25
2023-04-02T04:05:29.057Z,8.28
2023-04-02T04:07:59.848Z,8.28
2023-04-02T04:10:27.208Z,8.24
2023-04-02T04:12:52.756Z,8.36
2023-04-02T04:15:37.118Z,8.31
2023-04-02T04:18:10.570Z,8.29
2023-04-02T04:21:01.446Z,8.33
2023-04-02T04:23:38.238Z,8.36
2023-04-02T04:26:26.101Z,8.39
2023-04-02T04:29:25.735Z,8.39
2023-04-02T04:31:55.377Z,8.49
2023-04-02T04:34:30.113Z,8.56
2023-04-02T04:37:01.748Z,8.66
2023-04-02T04:39:43.124Z,8.79
2023-04-02T04:42:12.698Z,8.96
2023-04-02T04:44:35.409Z,9.12
2023-04-02T04:47:03.866Z,9.22
2023-04-02T04:49:44.960Z,9.32
2023-04-02T04:52:21.615Z,9.43
2023-04-02T04:54:46.829Z,9.59
2023-04-02T04:57:27.388Z,10.11
2023-04-02T04:59:57.843Z,11.17
2023-04-02T05:02:31.576Z,11.76
2023-04-02T05:04:55.439Z,12.31
2023-04-02T05:07:23.167Z,12.55
2023-04-02T05:10:13.374Z,12.81
2023-04-02T05:13:01.736Z,12.84
2023-04-02T05:15:28.203Z,13.30
2023-04-02T05:18:10.952Z,13.64
2023-04-02T05:20:44.018Z,13.81
2023-04-02T05:23:59.624Z,14.87
2023-04-02T05:26:40.872Z,15.11
2023-04-02T05:29:13.617Z,15.14
2023-04-02T05:31:39.967Z,16.12
2023-04-02T05:34:03.441Z,16.52
2023-04-02T05:36:29.345Z,16.05
2023-04-02T05:38:56.549Z,15.11
2023-04-02T05:41:32.606Z,14.19
2023-04-02T05:44:11.247Z,13.28
2023-04-02T05:46:46.130Z,12.99
2023-04-02T05:49:32.024Z,12.65
2023-04-02T05:51:59.018Z,12.64
2023-04-02T05:54:38.709Z,13.55
2023-04-02T05:57:07.151Z,14.92
2023-04-02T05:59:36.984Z,16.29
2023-04-02T06:02:23.044Z,16.10
2023-04-02T06:05:08.334Z,16.24
2023-04-02T06:07:41.855Z,17.28
2023-04-02T06:10:29.821Z,17.17
2023-04-02T06:13:03.491Z,16.36
2023-04-02T06:15:31.815Z,15.62
2023-04-02T06:18:14.317Z,15.14
2023-04-02T06:20:38.202Z,14.59
2023-04-02T06:23:23.309Z,14.04
2023-04-02T06:26:13.925Z,13.89
2023-04-02T06:29:16.261Z,13.61
2023-04-02T06:31:47.347Z,13.55
2023-04-02T06:34:16.668Z,13.54
2023-04-02T06:36:46.329Z,13.68
2023-04-02T06:39:19.879Z,13.82
2023-04-02T06:41:44.402Z,13.82
2023-04-02T06:44:28.288Z,13.92
2023-04-02T06:47:11.875Z,13.98
2023-04-02T06:49:42.943Z,13.92
2023-04-02T06:52:21.062Z,13.74
2023-04-02T06:54:44.078Z,13.42
2023-04-02T06:57:08.337Z,13.54
2023-04-02T06:59:37.198Z,13.50
2023-04-02T07:02:12.825Z,13.64
2023-04-02T07:04:35.745Z,13.91
2023-04-02T07:06:59.416Z,14.46
2023-04-02T07:09:26.801Z,16.56
2023-04-02T07:11:52.891Z,17.89
2023-04-02T07:14:16.126Z,17.58
2023-04-02T07:16:39.838Z,17.24
2023-04-02T07:19:04.243Z,16.80
2023-04-02T07:21:32.614Z,16.46
2023-04-02T07:23:55.543Z,15.83
2023-04-02T07:26:22.303Z,15.67
2023-04-02T07:28:45.556Z,15.73
2023-04-02T07:31:20.403Z,15.56
2023-04-02T07:33:43.283Z,15.32
2023-04-02T07:36:06.371Z,15.18
2023-04-02T07:38:29.027Z,15.25
2023-04-02T07:40:51.674Z,15.38
2023-04-02T07:43:14.303Z,15.60
2023-04-02T07:45:37.499Z,15.89
2023-04-02T07:48:13.069Z,17.08
2023-04-02T07:50:36.152Z,17.02
2023-04-02T07:52:58.922Z,16.53
2023-04-02T07:55:21.652Z,16.75
2023-04-02T07:57:51.374Z,16.51
2023-04-02T08:00:14.619Z,16.55
2023-04-02T08:02:37.795Z,16.73
2023-04-02T08:05:00.570Z,16.77
2023-04-02T08:07:23.116Z,16.59
2023-04-02T08:09:46.022Z,16.22
2023-04-02T08:12:12.992Z,16.07
2023-04-02T08:14:35.804Z,16.56
2023-04-02T08:16:58.779Z,17.44
2023-04-02T08:19:22.099Z,17.65
2023-04-02T08:21:45.414Z,17.76
2023-04-02T08:24:08.181Z,17.45
2023-04-02T08:26:31.221Z,17.04
2023-04-02T08:28:54.334Z,17.15
2023-04-02T08:31:17.328Z,16.88
2023-04-02T08:33:40.114Z,16.65
2023-04-02T08:36:02.843Z,16.69
2023-04-02T08:38:25.985Z,16.55
2023-04-02T08:40:54.396Z,16.18
2023-04-02T08:43:37.596Z,16.04
2023-04-02T08:46:21.729Z,16.11
2023-04-02T08:48:49.642Z,16.14
2023-04-02T08:51:25.404Z,16.17
2023-04-02T08:53:48.301Z,16.17
2023-04-02T08:56:40.969Z,16.12
2023-04-02T08:59:15.701Z,16.26
2023-04-02T09:02:21.381Z,16.42
2023-04-02T09:04:44.152Z,16.48
2023-04-02T09:07:11.491Z,16.53
2023-04-02T09:09:38.252Z,16.38
2023-04-02T09:12:05.709Z,16.42
2023-04-02T09:14:43.648Z,16.42
2023-04-02T09:17:24.908Z,16.45
2023-04-02T09:20:01.924Z,16.42
2023-04-02T09:22:32.800Z,16.46
2023-04-02T09:24:57.825Z,16.18
2023-04-02T09:27:26.968Z,16.19
2023-04-02T09:30:02.833Z,16.22
2023-04-02T09:33:00.793Z,16.19
2023-04-02T09:35:27.059Z,16.33
2023-04-02T09:38:09.930Z,16.31
2023-04-02T09:40:51.862Z,16.32
2023-04-02T09:43:17.877Z,16.51
2023-04-02T09:45:42.243Z,16.73
2023-04-02T09:48:21.638Z,16.86
2023-04-02T09:50:44.308Z,17.13
2023-04-02T09:53:31.286Z,17.15
2023-04-02T09:56:12.121Z,17.27
2023-04-02T09:58:35.025Z,17.31
2023-04-02T10:00:57.950Z,17.73
2023-04-02T10:03:32.896Z,17.58
2023-04-02T10:06:16.055Z,18.17
2023-04-02T10:08:42.394Z,18.40
2023-04-02T10:11:46.390Z,17.86
2023-04-02T10:14:23.948Z,17.83
2023-04-02T10:16:58.138Z,17.89
2023-04-02T10:19:32.504Z,18.23
2023-04-02T10:22:17.918Z,18.00
2023-04-02T10:24:40.975Z,18.44
2023-04-02T10:27:56.917Z,18.58
2023-04-02T10:30:28.758Z,18.28
2023-04-02T10:33:00.481Z,18.61
2023-04-02T10:35:42.071Z,18.26
2023-04-02T10:38:07.823Z,17.97
2023-04-02T10:40:39.719Z,18.21
2023-04-02T10:43:24.003Z,17.97
2023-04-02T10:45:54.683Z,17.93
2023-04-02T10:48:26.925Z,17.52
2023-04-02T10:51:19.988Z,17.14
2023-04-02T10:53:56.075Z,17.20
2023-04-02T10:56:19.108Z,17.10
2023-04-02T10:59:11.313Z,17.06
2023-04-02T11:01:35.507Z,16.73
2023-04-02T11:04:07.052Z,16.66
2023-04-02T11:07:11.154Z,16.86
2023-04-02T11:09:41.212Z,16.86
2023-04-02T11:12:05.932Z,17.04
2023-04-02T11:14:30.986Z,17.13
2023-04-02T11:16:56.699Z,17.21
2023-04-02T11:19:19.414Z,17.14
2023-04-02T11:21:57.986Z,17.10
2023-04-02T11:24:32.784Z,17.11
2023-04-02T11:27:09.989Z,17.21
2023-04-02T11:29:34.787Z,17.04
2023-04-02T11:32:24.108Z,16.99
2023-04-02T11:35:03.036Z,16.87
2023-04-02T11:37:43.248Z,16.81
2023-04-02T11:40:12.872Z,16.84
2023-04-02T11:42:40.397Z,17.04
2023-04-02T11:45:23.972Z,17.02
2023-04-02T11:48:02.056Z,17.00
2023-04-02T11:50:33.923Z,16.97
2023-04-02T11:53:05.582Z,17.02
2023-04-02T11:55:33.520Z,16.96
2023-04-02T11:58:20.671Z,17.02
2023-04-02T12:01:18.429Z,16.97
2023-04-02T12:03:56.391Z,16.84
2023-04-02T12:06:30.759Z,16.86
2023-04-02T12:09:27.398Z,16.94
2023-04-02T12:11:52.763Z,17.03
2023-04-02T12:14:36.921Z,16.94
2023-04-02T12:16:59.983Z,17.08
2023-04-02T12:19:24.217Z,17.14
2023-04-02T12:21:48.720Z,17.24
2023-04-02T12:24:19.700Z,17.20
2023-04-02T12:26:42.507Z,17.08
2023-04-02T12:29:24.953Z,17.11
2023-04-02T12:31:48.397Z,17.10
2023-04-02T12:34:17.068Z,17.20
2023-04-02T12:36:40.469Z,17.11
2023-04-02T12:39:03.494Z,17.04
2023-04-02T12:41:32.340Z,16.80
2023-04-02T12:44:06.526Z,16.72
2023-04-02T12:46:31.583Z,16.58
2023-04-02T12:49:05.084Z,16.84
2023-04-02T12:51:28.463Z,16.91
2023-04-02T12:53:53.181Z,16.75
2023-04-02T12:56:21.756Z,16.67
2023-04-02T12:58:51.908Z,16.69
2023-04-02T13:01:18.632Z,16.76
2023-04-02T13:03:41.950Z,16.88
2023-04-02T13:06:24.143Z,16.88
2023-04-02T13:08:46.835Z,17.00
2023-04-02T13:11:09.575Z,17.08
2023-04-02T13:13:38.469Z,17.15
2023-04-02T13:16:07.499Z,17.25
2023-04-02T13:18:32.025Z,17.35
2023-04-02T13:20:59.514Z,17.48
2023-04-02T13:23:31.569Z,17.39
2023-04-02T13:25:55.187Z,17.27
2023-04-02T13:28:18.808Z,17.36
2023-04-02T13:30:41.663Z,17.23
2023-04-02T13:33:04.843Z,17.15
2023-04-02T13:35:27.638Z,17.06
2023-04-02T13:37:50.336Z,16.80
2023-04-02T13:40:18.025Z,16.62
2023-04-02T13:42:42.838Z,16.28
2023-04-02T13:45:18.857Z,16.18
2023-04-02T13:47:41.646Z,16.02
2023-04-02T13:50:05.015Z,15.96
2023-04-02T13:52:27.759Z,15.86
2023-04-02T13:54:56.377Z,15.76
2023-04-02T13:57:19.379Z,15.74
2023-04-02T13:59:42.680Z,15.73
2023-04-02T14:02:18.124Z,15.74
2023-04-02T14:04:45.093Z,15.84
2023-04-02T14:07:28.259Z,16.01
2023-04-02T14:09:56.998Z,16.29
2023-04-02T14:12:28.672Z,16.58
2023-04-02T14:14:54.628Z,16.73
2023-04-02T14:17:35.138Z,16.84
2023-04-02T14:20:35.153Z,16.73
2023-04-02T14:23:23.241Z,16.36
2023-04-02T14:25:52.946Z,16.29
2023-04-02T14:28:40.475Z,16.07
2023-04-02T14:31:06.205Z,16.11
2023-04-02T14:34:09.560Z,16.33
2023-04-02T14:36:57.655Z,16.44
2023-04-02T14:39:38.079Z,16.84
2023-04-02T14:42:04.524Z,17.03
2023-04-02T14:44:32.379Z,17.39
2023-04-02T14:47:29.386Z,17.51
2023-04-02T14:49:58.337Z,17.44
2023-04-02T14:52:23.644Z,17.31
2023-04-02T14:54:55.089Z,17.11
2023-04-02T14:57:31.473Z,16.97
2023-04-02T15:00:07.551Z,16.91
2023-04-02T15:02:55.013Z,16.69
2023-04-02T15:05:22.545Z,16.58
2023-04-02T15:08:17.298Z,16.39
2023-04-02T15:11:12.148Z,16.19
2023-04-02T15:13:39.928Z,15.89
2023-04-02T15:16:22.836Z,15.73
2023-04-02T15:18:46.771Z,15.67
2023-04-02T15:21:25.593Z,15.50
2023-04-02T15:24:01.771Z,15.46
2023-04-02T15:26:52.036Z,15.40
2023-04-02T15:29:28.921Z,15.47
2023-04-02T15:31:58.497Z,15.50
2023-04-02T15:34:39.544Z,15.45
2023-04-02T15:37:37.845Z,15.50
2023-04-02T15:40:26.835Z,15.42
2023-04-02T15:42:52.232Z,15.43
2023-04-02T15:45:37.454Z,15.38
2023-04-02T15:48:03.913Z,15.21
2023-04-02T15:50:46.896Z,15.08
2023-04-02T15:53:15.214Z,15.04
2023-04-02T15:55:56.909Z,14.89
2023-04-02T15:58:31.755Z,14.59
2023-04-02T16:01:11.744Z,14.02
2023-04-02T16:04:12.990Z,13.92
2023-04-02T16:06:49.722Z,13.91
2023-04-02T16:09:27.323Z,14.00
2023-04-02T16:11:58.569Z,14.00
2023-04-02T16:14:31.336Z,14.05
2023-04-02T16:17:02.305Z,13.77
2023-04-02T16:19:53.058Z,13.82
2023-04-02T16:22:26.072Z,13.85
2023-04-02T16:24:53.500Z,13.74
2023-04-02T16:27:38.369Z,13.81
2023-04-02T16:30:27.193Z,13.70
2023-04-02T16:33:05.863Z,13.75
2023-04-02T16:36:12.853Z,13.86
2023-04-02T16:38:52.708Z,13.91
2023-04-02T16:41:43.168Z,13.94
2023-04-02T16:44:20.696Z,13.95
2023-04-02T16:47:14.253Z,14.12
2023-04-02T16:49:46.093Z,14.13
2023-04-02T16:52:33.782Z,14.06
2023-04-02T16:55:26.806Z,13.89
2023-04-02T16:57:52.697Z,13.82
2023-04-02T17:00:37.817Z,13.67
2023-04-02T17:03:15.341Z,13.57
2023-04-02T17:06:01.663Z,13.42
2023-04-02T17:08:37.802Z,13.20
2023-04-02T17:11:28.435Z,12.92
2023-04-02T17:14:14.418Z,12.67
2023-04-02T17:16:43.315Z,12.48
2023-04-02T17:19:11.299Z,12.41
2023-04-02T17:21:35.700Z,12.34
2023-04-02T17:24:06.406Z,12.19
2023-04-02T17:26:32.763Z,12.07
2023-04-02T17:28:58.366Z,12.02
2023-04-02T17:31:34.225Z,11.90
2023-04-02T17:33:57.177Z,11.83
2023-04-02T17:36:44.282Z,11.76
2023-04-02T17:39:44.397Z,11.71
2023-04-02T17:42:34.188Z,11.58
2023-04-02T17:45:06.878Z,11.52
2023-04-02T17:47:55.995Z,11.38
2023-04-02T17:50:52.041Z,11.28
2023-04-02T17:53:19.330Z,11.20
2023-04-02T17:56:06.659Z,11.10
2023-04-02T17:58:58.445Z,10.89
2023-04-02T18:01:34.396Z,10.80
2023-04-02T18:04:27.701Z,10.69
2023-04-02T18:07:22.560Z,10.59
2023-04-02T18:13:08.969Z,10.37
2023-04-02T18:15:58.328Z,10.30
2023-04-02T18:18:55.998Z,10.18
2023-04-02T18:21:31.211Z,10.15
2023-04-02T18:24:03.064Z,10.01
2023-04-02T18:26:40.727Z,9.94
2023-04-02T18:29:31.622Z,9.84
2023-04-02T18:31:57.331Z,9.67
2023-04-02T18:34:38.901Z,9.56
2023-04-02T18:37:35.623Z,9.52
2023-04-02T18:40:19.304Z,9.42
2023-04-02T18:43:06.731Z,9.31
2023-04-02T18:45:44.710Z,9.24
2023-04-02T18:48:21.922Z,9.11
2023-04-02T18:50:47.022Z,9.03
2023-04-02T18:53:16.589Z,8.98
2023-04-02T18:55:55.623Z,8.84
2023-04-02T18:58:36.940Z,8.76
2023-04-02T19:01:01.206Z,8.74
2023-04-02T19:03:35.830Z,8.62
2023-04-02T19:06:21.501Z,8.60
2023-04-02T19:09:02.930Z,8.54
2023-04-02T19:11:29.589Z,8.49
2023-04-02T19:13:52.567Z,8.32
2023-04-02T19:16:57.318Z,8.31
2023-04-02T19:19:28.265Z,8.21
2023-04-02T19:21:51.603Z,8.15
2023-04-02T19:24:32.890Z,8.09
2023-04-02T19:27:42.330Z,8.01
2023-04-02T19:30:36.451Z,8.08
2023-04-02T19:33:14.366Z,8.02
2023-04-02T19:36:03.669Z,7.99
2023-04-02T19:38:55.719Z,8.04
2023-04-02T19:41:48.243Z,8.04
2023-04-02T19:44:13.441Z,7.95
2023-04-02T19:46:36.268Z,7.91
2023-04-02T19:49:11.320Z,7.95
2023-04-02T19:51:34.261Z,7.93
2023-04-02T19:53:57.348Z,7.90
2023-04-02T19:56:20.982Z,7.91
2023-04-02T19:58:43.590Z,7.91
2023-04-02T20:01:06.630Z,7.87
2023-04-02T20:03:30.471Z,7.83
2023-04-02T20:05:53.863Z,7.77
2023-04-02T20:08:16.562Z,7.74
2023-04-02T20:10:39.885Z,7.76
2023-04-02T20:13:02.891Z,7.77
2023-04-02T20:15:26.308Z,7.80
2023-04-02T20:17:49.332Z,7.78
2023-04-02T20:20:13.659Z,7.87
2023-04-02T20:22:36.490Z,7.81
2023-04-02T20:24:59.506Z,7.78
2023-04-02T20:27:22.281Z,7.78
2023-04-02T20:29:48.436Z,7.80
2023-04-02T20:32:13.113Z,7.78
2023-04-02T20:34:36.873Z,7.83
2023-04-02T20:36:59.811Z,7.76
2023-04-02T20:39:22.836Z,7.76
2023-04-02T20:41:46.580Z,7.73
2023-04-02T20:44:09.219Z,7.71
2023-04-02T20:46:31.872Z,7.73
2023-04-02T20:48:54.957Z,7.71
2023-04-02T20:51:17.569Z,7.70
2023-04-02T20:53:56.275Z,7.71
2023-04-02T20:56:20.245Z,7.70
2023-04-02T20:58:44.071Z,7.69
2023-04-02T21:01:29.363Z,7.62
2023-04-02T21:04:03.508Z,7.63
2023-04-02T21:06:28.695Z,7.66
2023-04-02T21:08:52.369Z,7.66
2023-04-02T21:11:15.961Z,7.64
2023-04-02T21:13:38.830Z,7.60
2023-04-02T21:16:01.547Z,7.62
2023-04-02T21:18:24.298Z,7.60
2023-04-02T21:20:59.222Z,7.62
2023-04-02T21:23:21.855Z,7.74
2023-04-02T21:25:55.009Z,7.71
2023-04-02T21:28:17.767Z,7.73
2023-04-02T21:30:40.538Z,7.71
2023-04-02T21:33:03.401Z,7.74
2023-04-02T21:35:25.943Z,7.71
2023-04-02T21:37:48.627Z,7.66
2023-04-02T21:40:11.562Z,7.64
2023-04-02T21:42:34.223Z,7.52
2023-04-02T21:44:56.944Z,7.47
2023-04-02T21:47:21.807Z,7.43
2023-04-02T21:49:44.486Z,7.43
2023-04-02T21:52:07.549Z,7.46
2023-04-02T21:54:30.472Z,7.50
2023-04-02T21:56:53.454Z,7.46
2023-04-02T21:59:17.359Z,7.46
2023-04-02T22:01:43.260Z,7.39
2023-04-02T22:04:08.424Z,7.43
2023-04-02T22:06:33.417Z,7.35
2023-04-02T22:09:01.695Z,7.30
2023-04-02T22:11:30.575Z,7.39
2023-04-02T22:13:53.898Z,7.35
2023-04-02T22:16:27.933Z,7.32
2023-04-02T22:18:53.059Z,7.30
2023-04-02T22:21:16.649Z,7.32
2023-04-02T22:23:41.215Z,7.33
2023-04-02T22:26:05.737Z,7.35
2023-04-02T22:28:29.195Z,7.36
2023-04-02T22:30:52.437Z,7.37
2023-04-02T22:33:16.861Z,7.39
2023-04-02T22:35:39.455Z,7.32
2023-04-02T22:38:02.148Z,7.30
2023-04-02T22:40:25.261Z,7.25
2023-04-02T22:42:48.637Z,7.26
2023-04-02T22:45:12.541Z,7.26
2023-04-02T22:47:35.157Z,7.25
2023-04-02T22:49:57.743Z,7.25
2023-04-02T22:52:20.409Z,7.19
2023-04-02T22:54:42.974Z,7.14
2023-04-02T22:57:05.768Z,7.19
2023-04-02T22:59:28.621Z,7.25
2023-04-02T23:01:51.420Z,7.25
2023-04-02T23:04:14.003Z,7.19
2023-04-02T23:06:36.674Z,7.19
2023-04-02T23:08:59.554Z,7.14
2023-04-02T23:11:24.281Z,7.11
2023-04-02T23:13:49.385Z,7.05
2023-04-02T23:16:13.602Z,7.05
2023-04-02T23:18:37.666Z,7.07
2023-04-02T23:21:00.880Z,7.05
2023-04-02T23:23:24.255Z,7.02
2023-04-02T23:25:46.829Z,7.11
2023-04-02T23:28:12.308Z,7.09
2023-04-02T23:30:35.203Z,7.15
2023-04-02T23:32:58.631Z,7.12
2023-04-02T23:35:21.642Z,7.12
2023-04-02T23:37:44.290Z,7.14
2023-04-02T23:40:08.178Z,7.19
2023-04-02T23:42:31.045Z,7.15
2023-04-02T23:44:53.958Z,7.11
2023-04-02T23:47:16.507Z,7.18
2023-04-02T23:49:39.452Z,7.15
2023-04-02T23:52:01.939Z,7.18
2023-04-02T23:54:24.625Z,7.16
2023-04-02T23:56:47.342Z,7.11
2023-04-02T23:59:10.032Z,7.11
